sensor_id;sensor_type;location;lat;lon;timestamp;pressure;altitude;pressure_sealevel;temperature;humidity
80892;BME280;70343;51.530;5.050;2024-02-14T00:01:33;101330.09;;;8.19;100.00
80892;BME280;70343;51.530;5.050;2024-02-14T00:04:03;101337.53;;;8.13;100.00
80892;BME280;70343;51.530;5.050;2024-02-14T00:06:28;101322.78;;;8.14;100.00
80892;BME280;70343;51.530;5.050;2024-02-14T00:08:54;101328.31;;;8.19;100.00
80892;BME280;70343;51.530;5.050;2024-02-14T00:11:19;101322.94;;;8.21;100.00
80892;BME280;70343;51.530;5.050;2024-02-14T00:13:45;101317.75;;;8.21;100.00
80892;BME280;70343;51.530;5.050;2024-02-14T00:16:10;101317.59;;;8.22;100.00
80892;BME280;70343;51.530;5.050;2024-02-14T00:18:36;101318.53;;;8.21;100.00
80892;BME280;70343;51.530;5.050;2024-02-14T00:21:01;101321.78;;;8.23;100.00
80892;BME280;70343;51.530;5.050;2024-02-14T00:23:27;101318.91;;;8.26;100.00
80892;BME280;70343;51.530;5.050;2024-02-14T00:25:52;101324.28;;;8.25;100.00
80892;BME280;70343;51.530;5.050;2024-02-14T00:28:18;101316.31;;;8.26;100.00
80892;BME280;70343;51.530;5.050;2024-02-14T00:30:43;101311.13;;;8.26;100.00
80892;BME280;70343;51.530;5.050;2024-02-14T00:33:08;101306.59;;;8.36;100.00
80892;BME280;70343;51.530;5.050;2024-02-14T00:35:34;101306.25;;;8.39;100.00
80892;BME280;70343;51.530;5.050;2024-02-14T00:37:59;101299.28;;;8.40;100.00
80892;BME280;70343;51.530;5.050;2024-02-14T00:40:25;101310.16;;;8.35;100.00
80892;BME280;70343;51.530;5.050;2024-02-14T00:42:50;101299.75;;;8.35;100.00
80892;BME280;70343;51.530;5.050;2024-02-14T00:45:16;101306.59;;;8.36;100.00
80892;BME280;70343;51.530;5.050;2024-02-14T00:47:41;101312.44;;;8.38;100.00
80892;BME280;70343;51.530;5.050;2024-02-14T00:50:07;101309.00;;;8.38;100.00
80892;BME280;70343;51.530;5.050;2024-02-14T00:52:33;101304.63;;;8.38;100.00
80892;BME280;70343;51.530;5.050;2024-02-14T00:54:58;101303.47;;;8.41;100.00
80892;BME280;70343;51.530;5.050;2024-02-14T00:57:24;101305.59;;;8.45;100.00
80892;BME280;70343;51.530;5.050;2024-02-14T00:59:54;101305.28;;;8.40;100.00
80892;BME280;70343;51.530;5.050;2024-02-14T01:02:21;101297.31;;;8.42;100.00
80892;BME280;70343;51.530;5.050;2024-02-14T01:04:47;101286.41;;;8.54;100.00
80892;BME280;70343;51.530;5.050;2024-02-14T01:07:13;101305.44;;;8.55;100.00
80892;BME280;70343;51.530;5.050;2024-02-14T01:09:38;101301.88;;;8.56;100.00
80892;BME280;70343;51.530;5.050;2024-02-14T01:12:04;101303.81;;;8.54;100.00
80892;BME280;70343;51.530;5.050;2024-02-14T01:14:31;101298.44;;;8.63;100.00
80892;BME280;70343;51.530;5.050;2024-02-14T01:16:56;101302.00;;;8.62;100.00
80892;BME280;70343;51.530;5.050;2024-02-14T01:19:22;101302.16;;;8.69;100.00
80892;BME280;70343;51.530;5.050;2024-02-14T01:21:49;101302.81;;;8.63;100.00
80892;BME280;70343;51.530;5.050;2024-02-14T01:24:15;101297.31;;;8.66;100.00
80892;BME280;70343;51.530;5.050;2024-02-14T01:26:41;101308.03;;;8.63;100.00
80892;BME280;70343;51.530;5.050;2024-02-14T01:29:07;101317.59;;;8.62;100.00
80892;BME280;70343;51.530;5.050;2024-02-14T01:31:33;101316.78;;;8.70;100.00
80892;BME280;70343;51.530;5.050;2024-02-14T01:33:59;101323.78;;;8.69;100.00
80892;BME280;70343;51.530;5.050;2024-02-14T01:36:30;101321.50;;;8.66;100.00
80892;BME280;70343;51.530;5.050;2024-02-14T01:38:55;101319.38;;;8.78;100.00
80892;BME280;70343;51.530;5.050;2024-02-14T01:41:21;101331.22;;;8.80;100.00
80892;BME280;70343;51.530;5.050;2024-02-14T01:43:47;101329.63;;;8.79;100.00
80892;BME280;70343;51.530;5.050;2024-02-14T01:46:13;101331.75;;;8.68;100.00
80892;BME280;70343;51.530;5.050;2024-02-14T01:48:39;101338.38;;;8.70;100.00
80892;BME280;70343;51.530;5.050;2024-02-14T01:51:08;101338.22;;;8.72;100.00
80892;BME280;70343;51.530;5.050;2024-02-14T01:53:35;101328.66;;;8.64;100.00
80892;BME280;70343;51.530;5.050;2024-02-14T01:56:01;101326.03;;;8.64;100.00
80892;BME280;70343;51.530;5.050;2024-02-14T01:58:30;101324.91;;;8.67;100.00
80892;BME280;70343;51.530;5.050;2024-02-14T02:00:55;101326.69;;;8.66;100.00
80892;BME280;70343;51.530;5.050;2024-02-14T02:03:25;101325.72;;;8.67;100.00
80892;BME280;70343;51.530;5.050;2024-02-14T02:05:55;101329.78;;;8.70;100.00
80892;BME280;70343;51.530;5.050;2024-02-14T02:08:21;101323.94;;;8.68;100.00
80892;BME280;70343;51.530;5.050;2024-02-14T02:10:47;101322.78;;;8.70;100.00
80892;BME280;70343;51.530;5.050;2024-02-14T02:13:12;101326.38;;;8.69;100.00
80892;BME280;70343;51.530;5.050;2024-02-14T02:15:41;101326.69;;;8.66;100.00
80892;BME280;70343;51.530;5.050;2024-02-14T02:18:10;101319.88;;;8.65;100.00
80892;BME280;70343;51.530;5.050;2024-02-14T02:20:35;101317.75;;;8.69;100.00
80892;BME280;70343;51.530;5.050;2024-02-14T02:23:01;101321.34;;;8.68;100.00
80892;BME280;70343;51.530;5.050;2024-02-14T02:25:27;101334.81;;;8.71;100.00
80892;BME280;70343;51.530;5.050;2024-02-14T02:27:53;101325.38;;;8.70;100.00
80892;BME280;70343;51.530;5.050;2024-02-14T02:30:25;101329.63;;;8.71;100.00
80892;BME280;70343;51.530;5.050;2024-02-14T02:32:50;101324.75;;;8.68;100.00
80892;BME280;70343;51.530;5.050;2024-02-14T02:35:17;101327.34;;;8.68;100.00
80892;BME280;70343;51.530;5.050;2024-02-14T02:37:45;101327.50;;;8.75;100.00
80892;BME280;70343;51.530;5.050;2024-02-14T02:40:13;101317.41;;;8.72;100.00
80892;BME280;70343;51.530;5.050;2024-02-14T02:42:40;101323.59;;;8.71;100.00
80892;BME280;70343;51.530;5.050;2024-02-14T02:45:06;101319.88;;;8.73;100.00
80892;BME280;70343;51.530;5.050;2024-02-14T02:47:32;101315.63;;;8.80;100.00
80892;BME280;70343;51.530;5.050;2024-02-14T02:49:57;101321.47;;;8.82;100.00
80892;BME280;70343;51.530;5.050;2024-02-14T02:52:25;101329.09;;;8.84;100.00
80892;BME280;70343;51.530;5.050;2024-02-14T02:54:50;101327.16;;;8.86;100.00
80892;BME280;70343;51.530;5.050;2024-02-14T02:57:17;101329.94;;;8.84;100.00
80892;BME280;70343;51.530;5.050;2024-02-14T02:59:44;101330.56;;;8.86;100.00
80892;BME280;70343;51.530;5.050;2024-02-14T03:02:11;101338.19;;;8.88;100.00
80892;BME280;70343;51.530;5.050;2024-02-14T03:04:38;101327.97;;;8.86;100.00
80892;BME280;70343;51.530;5.050;2024-02-14T03:07:03;101344.38;;;8.95;100.00
80892;BME280;70343;51.530;5.050;2024-02-14T03:09:32;101341.94;;;8.93;100.00
80892;BME280;70343;51.530;5.050;2024-02-14T03:11:58;101340.97;;;8.94;100.00
80892;BME280;70343;51.530;5.050;2024-02-14T03:14:23;101346.34;;;8.93;100.00
80892;BME280;70343;51.530;5.050;2024-02-14T03:16:49;101331.22;;;8.96;100.00
80892;BME280;70343;51.530;5.050;2024-02-14T03:19:14;101340.94;;;9.03;100.00
80892;BME280;70343;51.530;5.050;2024-02-14T03:21:40;101335.41;;;9.06;100.00
80892;BME280;70343;51.530;5.050;2024-02-14T03:24:06;101341.63;;;8.96;100.00
80892;BME280;70343;51.530;5.050;2024-02-14T03:26:34;101339.97;;;8.95;100.00
80892;BME280;70343;51.530;5.050;2024-02-14T03:29:01;101351.00;;;9.06;100.00
80892;BME280;70343;51.530;5.050;2024-02-14T03:31:26;101332.50;;;9.01;100.00
80892;BME280;70343;51.530;5.050;2024-02-14T03:33:52;101346.16;;;9.03;100.00
80892;BME280;70343;51.530;5.050;2024-02-14T03:36:19;101344.50;;;9.10;100.00
80892;BME280;70343;51.530;5.050;2024-02-14T03:38:44;101341.91;;;9.02;100.00
80892;BME280;70343;51.530;5.050;2024-02-14T03:41:12;101343.53;;;9.11;100.00
80892;BME280;70343;51.530;5.050;2024-02-14T03:43:38;101351.28;;;9.19;100.00
80892;BME280;70343;51.530;5.050;2024-02-14T03:46:04;101335.38;;;9.14;100.00
80892;BME280;70343;51.530;5.050;2024-02-14T03:48:31;101344.47;;;9.18;100.00
80892;BME280;70343;51.530;5.050;2024-02-14T03:50:57;101348.41;;;9.14;100.00
80892;BME280;70343;51.530;5.050;2024-02-14T03:53:23;101347.25;;;9.16;100.00
80892;BME280;70343;51.530;5.050;2024-02-14T03:55:48;101351.28;;;9.19;100.00
80892;BME280;70343;51.530;5.050;2024-02-14T03:58:15;101351.63;;;9.16;100.00
80892;BME280;70343;51.530;5.050;2024-02-14T04:00:42;101354.53;;;9.29;100.00
80892;BME280;70343;51.530;5.050;2024-02-14T04:03:12;101340.88;;;9.19;100.00
80892;BME280;70343;51.530;5.050;2024-02-14T04:05:37;101358.59;;;9.31;100.00
80892;BME280;70343;51.530;5.050;2024-02-14T04:08:03;101365.75;;;9.21;100.00
80892;BME280;70343;51.530;5.050;2024-02-14T04:10:29;101361.03;;;9.25;100.00
80892;BME280;70343;51.530;5.050;2024-02-14T04:12:54;101370.97;;;9.21;100.00
80892;BME280;70343;51.530;5.050;2024-02-14T04:15:20;101358.13;;;9.20;100.00
80892;BME280;70343;51.530;5.050;2024-02-14T04:17:45;101364.31;;;9.19;100.00
80892;BME280;70343;51.530;5.050;2024-02-14T04:20:11;101368.69;;;9.26;100.00
80892;BME280;70343;51.530;5.050;2024-02-14T04:22:36;101373.34;;;9.39;100.00
80892;BME280;70343;51.530;5.050;2024-02-14T04:25:02;101369.16;;;9.30;100.00
80892;BME280;70343;51.530;5.050;2024-02-14T04:27:28;101375.19;;;9.30;100.00
80892;BME280;70343;51.530;5.050;2024-02-14T04:29:53;101374.38;;;9.30;100.00
80892;BME280;70343;51.530;5.050;2024-02-14T04:32:19;101378.75;;;9.29;100.00
80892;BME280;70343;51.530;5.050;2024-02-14T04:34:45;101374.84;;;9.33;100.00
80892;BME280;70343;51.530;5.050;2024-02-14T04:37:10;101381.19;;;9.31;100.00
80892;BME280;70343;51.530;5.050;2024-02-14T04:39:39;101388.50;;;9.35;100.00
80892;BME280;70343;51.530;5.050;2024-02-14T04:42:05;101389.34;;;9.28;100.00
80892;BME280;70343;51.530;5.050;2024-02-14T04:44:31;101384.13;;;9.28;100.00
80892;BME280;70343;51.530;5.050;2024-02-14T04:46:57;101381.53;;;9.28;100.00
80892;BME280;70343;51.530;5.050;2024-02-14T04:49:26;101388.34;;;9.29;100.00
80892;BME280;70343;51.530;5.050;2024-02-14T04:51:52;101394.06;;;9.24;100.00
80892;BME280;70343;51.530;5.050;2024-02-14T04:54:18;101389.00;;;9.23;100.00
80892;BME280;70343;51.530;5.050;2024-02-14T04:56:44;101383.81;;;9.23;100.00
80892;BME280;70343;51.530;5.050;2024-02-14T04:59:11;101391.94;;;9.28;100.00
80892;BME280;70343;51.530;5.050;2024-02-14T05:01:36;101385.44;;;9.32;100.00
80892;BME280;70343;51.530;5.050;2024-02-14T05:04:02;101390.47;;;9.33;100.00
80892;BME280;70343;51.530;5.050;2024-02-14T05:06:28;101381.72;;;9.26;100.00
80892;BME280;70343;51.530;5.050;2024-02-14T05:08:53;101391.13;;;9.27;100.00
80892;BME280;70343;51.530;5.050;2024-02-14T05:11:19;101390.31;;;9.27;100.00
80892;BME280;70343;51.530;5.050;2024-02-14T05:13:45;101390.66;;;9.24;100.00
80892;BME280;70343;51.530;5.050;2024-02-14T05:16:11;101399.41;;;9.23;100.00
80892;BME280;70343;51.530;5.050;2024-02-14T05:18:38;101393.56;;;9.21;100.00
80892;BME280;70343;51.530;5.050;2024-02-14T05:21:07;101390.31;;;9.27;100.00
80892;BME280;70343;51.530;5.050;2024-02-14T05:23:35;101390.47;;;9.25;100.00
80892;BME280;70343;51.530;5.050;2024-02-14T05:26:03;101404.31;;;9.26;100.00
80892;BME280;70343;51.530;5.050;2024-02-14T05:28:30;101392.44;;;9.23;100.00
80892;BME280;70343;51.530;5.050;2024-02-14T05:31:02;101407.22;;;9.23;100.00
80892;BME280;70343;51.530;5.050;2024-02-14T05:33:28;101402.19;;;9.21;100.00
80892;BME280;70343;51.530;5.050;2024-02-14T05:35:53;101398.78;;;9.21;100.00
80892;BME280;70343;51.530;5.050;2024-02-14T05:38:19;101393.75;;;9.19;100.00
80892;BME280;70343;51.530;5.050;2024-02-14T05:40:48;101392.25;;;9.25;100.00
80892;BME280;70343;51.530;5.050;2024-02-14T05:43:14;101402.66;;;9.25;100.00
80892;BME280;70343;51.530;5.050;2024-02-14T05:45:40;101397.16;;;9.28;100.00
80892;BME280;70343;51.530;5.050;2024-02-14T05:48:06;101399.09;;;9.26;100.00
80892;BME280;70343;51.530;5.050;2024-02-14T05:50:33;101402.66;;;9.25;100.00
80892;BME280;70343;51.530;5.050;2024-02-14T05:52:58;101403.16;;;9.28;100.00
80892;BME280;70343;51.530;5.050;2024-02-14T05:55:24;101406.56;;;9.29;100.00
80892;BME280;70343;51.530;5.050;2024-02-14T05:57:53;101405.28;;;9.25;100.00
80892;BME280;70343;51.530;5.050;2024-02-14T06:00:21;101398.94;;;9.27;100.00
80892;BME280;70343;51.530;5.050;2024-02-14T06:02:47;101403.97;;;9.29;100.00
80892;BME280;70343;51.530;5.050;2024-02-14T06:05:14;101406.41;;;9.30;100.00
80892;BME280;70343;51.530;5.050;2024-02-14T06:07:40;101404.78;;;9.29;100.00
80892;BME280;70343;51.530;5.050;2024-02-14T06:10:07;101417.63;;;9.31;100.00
80892;BME280;70343;51.530;5.050;2024-02-14T06:12:33;101413.72;;;9.35;100.00
80892;BME280;70343;51.530;5.050;2024-02-14T06:14:59;101408.19;;;9.38;100.00
80892;BME280;70343;51.530;5.050;2024-02-14T06:17:24;101422.81;;;9.39;100.00
80892;BME280;70343;51.530;5.050;2024-02-14T06:19:52;101421.34;;;9.36;100.00
80892;BME280;70343;51.530;5.050;2024-02-14T06:22:18;101418.91;;;9.35;100.00
80892;BME280;70343;51.530;5.050;2024-02-14T06:24:43;101429.97;;;9.37;100.00
80892;BME280;70343;51.530;5.050;2024-02-14T06:27:09;101431.59;;;9.46;100.00
80892;BME280;70343;51.530;5.050;2024-02-14T06:29:35;101433.88;;;9.41;100.00
80892;BME280;70343;51.530;5.050;2024-02-14T06:32:00;101435.97;;;9.45;100.00
80892;BME280;70343;51.530;5.050;2024-02-14T06:34:26;101445.09;;;9.41;100.00
80892;BME280;70343;51.530;5.050;2024-02-14T06:36:54;101444.75;;;9.44;100.00
80892;BME280;70343;51.530;5.050;2024-02-14T06:39:19;101444.94;;;9.43;100.00
80892;BME280;70343;51.530;5.050;2024-02-14T06:41:46;101452.75;;;9.43;100.00
80892;BME280;70343;51.530;5.050;2024-02-14T06:44:12;101440.53;;;9.43;100.00
80892;BME280;70343;51.530;5.050;2024-02-14T06:46:38;101449.66;;;9.47;100.00
80892;BME280;70343;51.530;5.050;2024-02-14T06:49:04;101440.53;;;9.51;100.00
80892;BME280;70343;51.530;5.050;2024-02-14T06:51:29;101438.59;;;9.45;100.00
80892;BME280;70343;51.530;5.050;2024-02-14T06:53:56;101445.88;;;9.50;100.00
80892;BME280;70343;51.530;5.050;2024-02-14T06:56:22;101448.66;;;9.48;100.00
80892;BME280;70343;51.530;5.050;2024-02-14T06:58:47;101451.59;;;9.45;100.00
80892;BME280;70343;51.530;5.050;2024-02-14T07:01:18;101459.22;;;9.47;100.00
80892;BME280;70343;51.530;5.050;2024-02-14T07:03:47;101458.59;;;9.45;100.00
80892;BME280;70343;51.530;5.050;2024-02-14T07:06:14;101450.47;;;9.48;100.00
80892;BME280;70343;51.530;5.050;2024-02-14T07:08:43;101454.03;;;9.47;100.00
80892;BME280;70343;51.530;5.050;2024-02-14T07:11:08;101456.47;;;9.48;100.00
80892;BME280;70343;51.530;5.050;2024-02-14T07:13:34;101459.88;;;9.49;100.00
80892;BME280;70343;51.530;5.050;2024-02-14T07:16:00;101465.25;;;9.47;100.00
80892;BME280;70343;51.530;5.050;2024-02-14T07:18:25;101458.09;;;9.49;100.00
80892;BME280;70343;51.530;5.050;2024-02-14T07:20:51;101460.88;;;9.48;100.00
80892;BME280;70343;51.530;5.050;2024-02-14T07:23:18;101467.53;;;9.50;100.00
80892;BME280;70343;51.530;5.050;2024-02-14T07:25:44;101456.94;;;9.52;100.00
80892;BME280;70343;51.530;5.050;2024-02-14T07:28:10;101462.78;;;9.54;100.00
80892;BME280;70343;51.530;5.050;2024-02-14T07:30:36;101460.50;;;9.59;100.00
80892;BME280;70343;51.530;5.050;2024-02-14T07:33:01;101454.31;;;9.52;100.00
80892;BME280;70343;51.530;5.050;2024-02-14T07:35:27;101457.91;;;9.59;100.00
80892;BME280;70343;51.530;5.050;2024-02-14T07:37:52;101463.59;;;9.62;100.00
80892;BME280;70343;51.530;5.050;2024-02-14T07:40:18;101462.78;;;9.62;100.00
80892;BME280;70343;51.530;5.050;2024-02-14T07:42:44;101462.44;;;9.65;100.00
80892;BME280;70343;51.530;5.050;2024-02-14T07:45:09;101470.09;;;9.66;100.00
80892;BME280;70343;51.530;5.050;2024-02-14T07:47:35;101468.94;;;9.69;100.00
80892;BME280;70343;51.530;5.050;2024-02-14T07:50:01;101463.09;;;9.67;100.00
80892;BME280;70343;51.530;5.050;2024-02-14T07:52:27;101472.53;;;9.68;100.00
80892;BME280;70343;51.530;5.050;2024-02-14T07:54:53;101470.25;;;9.73;100.00
80892;BME280;70343;51.530;5.050;2024-02-14T07:57:21;101480.97;;;9.78;100.00
80892;BME280;70343;51.530;5.050;2024-02-14T07:59:47;101485.53;;;9.76;100.00
80892;BME280;70343;51.530;5.050;2024-02-14T08:02:13;101479.00;;;9.80;100.00
80892;BME280;70343;51.530;5.050;2024-02-14T08:04:38;101485.19;;;9.79;100.00
80892;BME280;70343;51.530;5.050;2024-02-14T08:07:04;101491.19;;;9.79;100.00
80892;BME280;70343;51.530;5.050;2024-02-14T08:09:29;101487.09;;;9.85;100.00
80892;BME280;70343;51.530;5.050;2024-02-14T08:11:55;101484.22;;;9.80;100.00
80892;BME280;70343;51.530;5.050;2024-02-14T08:14:20;101484.03;;;9.81;100.00
80892;BME280;70343;51.530;5.050;2024-02-14T08:16:46;101486.28;;;9.93;100.00
80892;BME280;70343;51.530;5.050;2024-02-14T08:19:11;101497.84;;;9.90;100.00
80892;BME280;70343;51.530;5.050;2024-02-14T08:21:37;101482.22;;;9.90;100.00
80892;BME280;70343;51.530;5.050;2024-02-14T08:24:02;101490.00;;;9.98;100.00
80892;BME280;70343;51.530;5.050;2024-02-14T08:26:28;101491.16;;;9.96;100.00
80892;BME280;70343;51.530;5.050;2024-02-14T08:28:54;101489.00;;;10.07;100.00
80892;BME280;70343;51.530;5.050;2024-02-14T08:31:20;101491.25;;;10.18;100.00
80892;BME280;70343;51.530;5.050;2024-02-14T08:33:45;101495.66;;;10.18;100.00
80892;BME280;70343;51.530;5.050;2024-02-14T08:36:11;101492.72;;;10.21;100.00
80892;BME280;70343;51.530;5.050;2024-02-14T08:38:37;101492.88;;;10.19;100.00
80892;BME280;70343;51.530;5.050;2024-02-14T08:41:03;101506.56;;;10.21;100.00
80892;BME280;70343;51.530;5.050;2024-02-14T08:43:29;101498.09;;;10.19;100.00
80892;BME280;70343;51.530;5.050;2024-02-14T08:45:55;101499.03;;;10.26;100.00
80892;BME280;70343;51.530;5.050;2024-02-14T08:48:21;101489.41;;;10.27;100.00
80892;BME280;70343;51.530;5.050;2024-02-14T08:50:46;101501.13;;;10.31;100.00
80892;BME280;70343;51.530;5.050;2024-02-14T08:53:12;101493.41;;;10.45;100.00
80892;BME280;70343;51.530;5.050;2024-02-14T08:55:40;101499.88;;;10.49;100.00
80892;BME280;70343;51.530;5.050;2024-02-14T08:58:05;101504.41;;;10.55;100.00
80892;BME280;70343;51.530;5.050;2024-02-14T09:00:31;101507.56;;;10.51;100.00
80892;BME280;70343;51.530;5.050;2024-02-14T09:02:57;101515.84;;;10.54;100.00
80892;BME280;70343;51.530;5.050;2024-02-14T09:05:25;101519.78;;;10.50;100.00
80892;BME280;70343;51.530;5.050;2024-02-14T09:07:51;101523.03;;;10.52;100.00
80892;BME280;70343;51.530;5.050;2024-02-14T09:10:16;101532.66;;;10.44;100.00
80892;BME280;70343;51.530;5.050;2024-02-14T09:12:42;101533.94;;;10.48;100.00
80892;BME280;70343;51.530;5.050;2024-02-14T09:15:08;101531.88;;;10.43;100.00
80892;BME280;70343;51.530;5.050;2024-02-14T09:17:33;101535.59;;;10.49;100.00
80892;BME280;70343;51.530;5.050;2024-02-14T09:19:59;101541.59;;;10.49;100.00
80892;BME280;70343;51.530;5.050;2024-02-14T09:22:25;101529.19;;;10.51;100.00
80892;BME280;70343;51.530;5.050;2024-02-14T09:24:50;101532.94;;;10.57;100.00
80892;BME280;70343;51.530;5.050;2024-02-14T09:27:16;101536.25;;;10.73;100.00
80892;BME280;70343;51.530;5.050;2024-02-14T09:29:42;101526.47;;;10.75;100.00
80892;BME280;70343;51.530;5.050;2024-02-14T09:32:07;101533.09;;;10.86;100.00
80892;BME280;70343;51.530;5.050;2024-02-14T09:34:34;101540.97;;;10.78;100.00
80892;BME280;70343;51.530;5.050;2024-02-14T09:37:00;101540.78;;;10.80;100.00
80892;BME280;70343;51.530;5.050;2024-02-14T09:39:25;101537.50;;;10.86;100.00
80892;BME280;70343;51.530;5.050;2024-02-14T09:41:58;101538.19;;;10.80;100.00
80892;BME280;70343;51.530;5.050;2024-02-14T09:44:27;101541.16;;;10.77;100.00
80892;BME280;70343;51.530;5.050;2024-02-14T09:46:54;101533.41;;;10.83;100.00
80892;BME280;70343;51.530;5.050;2024-02-14T09:49:21;101536.91;;;10.75;100.00
80892;BME280;70343;51.530;5.050;2024-02-14T09:51:47;101538.31;;;10.86;100.00
80892;BME280;70343;51.530;5.050;2024-02-14T09:54:15;101538.13;;;10.88;100.00
80892;BME280;70343;51.530;5.050;2024-02-14T09:56:45;101531.63;;;10.84;100.00
80892;BME280;70343;51.530;5.050;2024-02-14T09:59:13;101541.88;;;10.85;100.00
80892;BME280;70343;51.530;5.050;2024-02-14T10:01:40;101534.50;;;10.89;100.00
80892;BME280;70343;51.530;5.050;2024-02-14T10:04:06;101543.34;;;10.88;100.00
80892;BME280;70343;51.530;5.050;2024-02-14T10:06:32;101540.75;;;10.88;100.00
80892;BME280;70343;51.530;5.050;2024-02-14T10:08:59;101536.44;;;10.95;100.00
80892;BME280;70343;51.530;5.050;2024-02-14T10:11:24;101533.19;;;10.93;100.00
80892;BME280;70343;51.530;5.050;2024-02-14T10:13:52;101545.03;;;11.03;100.00
80892;BME280;70343;51.530;5.050;2024-02-14T10:16:19;101541.91;;;11.08;100.00
80892;BME280;70343;51.530;5.050;2024-02-14T10:18:45;101541.03;;;11.15;100.00
80892;BME280;70343;51.530;5.050;2024-02-14T10:21:15;101543.97;;;11.12;100.00
80892;BME280;70343;51.530;5.050;2024-02-14T10:23:45;101551.06;;;11.04;100.00
80892;BME280;70343;51.530;5.050;2024-02-14T10:26:13;101552.44;;;11.14;100.00
80892;BME280;70343;51.530;5.050;2024-02-14T10:28:43;101547.84;;;11.16;100.00
80892;BME280;70343;51.530;5.050;2024-02-14T10:31:10;101562.53;;;11.17;100.00
80892;BME280;70343;51.530;5.050;2024-02-14T10:33:35;101551.28;;;11.17;100.00
80892;BME280;70343;51.530;5.050;2024-02-14T10:36:02;101553.97;;;11.09;100.00
80892;BME280;70343;51.530;5.050;2024-02-14T10:38:32;101560.28;;;11.14;100.00
80892;BME280;70343;51.530;5.050;2024-02-14T10:41:00;101551.28;;;11.17;100.00
80892;BME280;70343;51.530;5.050;2024-02-14T10:43:27;101554.22;;;11.14;100.00
80892;BME280;70343;51.530;5.050;2024-02-14T10:45:53;101550.97;;;11.12;100.00
80892;BME280;70343;51.530;5.050;2024-02-14T10:48:22;101559.13;;;11.17;100.00
80892;BME280;70343;51.530;5.050;2024-02-14T10:50:52;101556.16;;;11.20;100.00
80892;BME280;70343;51.530;5.050;2024-02-14T10:53:18;101551.22;;;11.25;100.00
80892;BME280;70343;51.530;5.050;2024-02-14T10:55:47;101552.56;;;11.21;100.00
80892;BME280;70343;51.530;5.050;2024-02-14T10:58:16;101542.00;;;11.14;100.00
80892;BME280;70343;51.530;5.050;2024-02-14T11:00:42;101553.59;;;11.12;100.00
80892;BME280;70343;51.530;5.050;2024-02-14T11:03:08;101555.22;;;11.13;100.00
80892;BME280;70343;51.530;5.050;2024-02-14T11:05:45;101552.44;;;11.14;100.00
80892;BME280;70343;51.530;5.050;2024-02-14T11:08:15;101556.38;;;11.10;100.00
80892;BME280;70343;51.530;5.050;2024-02-14T11:10:53;101551.97;;;11.11;100.00
80892;BME280;70343;51.530;5.050;2024-02-14T11:13:19;101550.25;;;11.03;100.00
80892;BME280;70343;51.530;5.050;2024-02-14T11:15:45;101539.94;;;11.10;100.00
80892;BME280;70343;51.530;5.050;2024-02-14T11:18:12;101546.13;;;11.09;100.00
80892;BME280;70343;51.530;5.050;2024-02-14T11:20:37;101545.16;;;11.10;100.00
80892;BME280;70343;51.530;5.050;2024-02-14T11:23:06;101537.66;;;11.07;100.00
80892;BME280;70343;51.530;5.050;2024-02-14T11:25:37;101534.78;;;11.02;100.00
80892;BME280;70343;51.530;5.050;2024-02-14T11:28:17;101537.38;;;11.02;100.00
80892;BME280;70343;51.530;5.050;2024-02-14T11:30:43;101533.78;;;11.03;100.00
80892;BME280;70343;51.530;5.050;2024-02-14T11:35:34;101538.03;;;11.04;100.00
80892;BME280;70343;51.530;5.050;2024-02-14T11:38:00;101530.81;;;11.06;100.00
80892;BME280;70343;51.530;5.050;2024-02-14T11:40:26;101523.00;;;11.06;100.00
80892;BME280;70343;51.530;5.050;2024-02-14T11:42:52;101533.91;;;11.09;100.00
80892;BME280;70343;51.530;5.050;2024-02-14T11:45:18;101529.13;;;11.13;100.00
80892;BME280;70343;51.530;5.050;2024-02-14T11:47:43;101527.50;;;11.12;100.00
80892;BME280;70343;51.530;5.050;2024-02-14T11:50:09;101521.25;;;11.21;100.00
80892;BME280;70343;51.530;5.050;2024-02-14T11:52:35;101518.00;;;11.19;100.00
80892;BME280;70343;51.530;5.050;2024-02-14T11:55:01;101526.47;;;11.21;100.00
80892;BME280;70343;51.530;5.050;2024-02-14T11:57:26;101524.88;;;11.34;100.00
80892;BME280;70343;51.530;5.050;2024-02-14T11:59:52;101517.09;;;11.26;100.00
80892;BME280;70343;51.530;5.050;2024-02-14T12:02:19;101520.34;;;11.28;100.00
80892;BME280;70343;51.530;5.050;2024-02-14T12:04:46;101513.69;;;11.26;100.00
80892;BME280;70343;51.530;5.050;2024-02-14T12:07:13;101516.34;;;11.18;100.00
80892;BME280;70343;51.530;5.050;2024-02-14T12:09:38;101527.09;;;11.23;100.00
80892;BME280;70343;51.530;5.050;2024-02-14T12:12:04;101524.47;;;11.23;100.00
80892;BME280;70343;51.530;5.050;2024-02-14T12:14:32;101511.44;;;11.23;100.00
80892;BME280;70343;51.530;5.050;2024-02-14T12:17:01;101510.28;;;11.25;100.00
80892;BME280;70343;51.530;5.050;2024-02-14T12:19:32;101515.66;;;11.24;100.00
80892;BME280;70343;51.530;5.050;2024-02-14T12:22:00;101511.75;;;11.20;100.00
80892;BME280;70343;51.530;5.050;2024-02-14T12:24:27;101517.00;;;11.20;100.00
80892;BME280;70343;51.530;5.050;2024-02-14T12:26:54;101522.06;;;11.21;100.00
80892;BME280;70343;51.530;5.050;2024-02-14T12:29:19;101512.78;;;11.19;100.00
80892;BME280;70343;51.530;5.050;2024-02-14T12:31:45;101511.94;;;11.18;100.00
80892;BME280;70343;51.530;5.050;2024-02-14T12:34:11;101523.94;;;11.27;100.00
80892;BME280;70343;51.530;5.050;2024-02-14T12:36:37;101519.53;;;11.28;100.00
80892;BME280;70343;51.530;5.050;2024-02-14T12:39:03;101513.97;;;11.31;100.00
80892;BME280;70343;51.530;5.050;2024-02-14T12:41:32;101518.19;;;11.32;100.00
80892;BME280;70343;51.530;5.050;2024-02-14T12:44:00;101523.22;;;11.33;100.00
80892;BME280;70343;51.530;5.050;2024-02-14T12:46:26;101521.09;;;11.37;100.00